createdAt,value
2018-01-26T00:01:17.599Z,10.53
2018-01-26T00:03:48.095Z,8.80
2018-01-26T00:06:18.246Z,8.63
2018-01-26T00:08:48.759Z,9.37
2018-01-26T00:11:19.358Z,9.90
2018-01-26T00:13:49.894Z,10.10
2018-01-26T00:16:20.450Z,9.97
2018-01-26T00:18:51.639Z,9.83
2018-01-26T00:21:22.523Z,11.53
2018-01-26T00:23:53.145Z,9.33
2018-01-26T00:26:23.532Z,10.53
2018-01-26T00:28:53.783Z,9.50
2018-01-26T00:31:24.061Z,10.47
2018-01-26T00:33:54.255Z,10.87
2018-01-26T00:36:24.214Z,11.90
2018-01-26T00:38:54.586Z,9.37
2018-01-26T00:41:26.205Z,10.97
2018-01-26T00:43:56.481Z,11.90
2018-01-26T00:46:27.519Z,10.27
2018-01-26T00:48:58.911Z,9.97
2018-01-26T00:51:30.379Z,10.83
2018-01-26T00:54:00.306Z,11.87
2018-01-26T00:56:31.450Z,11.20
2018-01-26T00:59:01.678Z,11.80
2018-01-26T01:01:32.405Z,11.00
2018-01-26T01:04:02.372Z,10.80
2018-01-26T01:06:34.116Z,11.20
2018-01-26T01:09:04.331Z,11.13
2018-01-26T01:11:34.646Z,10.17
2018-01-26T01:14:04.643Z,11.80
2018-01-26T01:16:35.686Z,11.50
2018-01-26T01:19:05.653Z,10.97
2018-01-26T01:21:35.667Z,11.20
2018-01-26T01:24:05.811Z,11.80
2018-01-26T01:26:36.384Z,13.47
2018-01-26T01:29:07.206Z,11.70
2018-01-26T01:31:37.236Z,11.43
2018-01-26T01:34:07.638Z,12.00
2018-01-26T01:36:38.641Z,11.53
2018-01-26T01:39:08.793Z,11.70
2018-01-26T01:41:40.370Z,11.17
2018-01-26T01:44:10.790Z,12.70
2018-01-26T01:46:42.226Z,11.30
2018-01-26T01:49:17.461Z,12.30
2018-01-26T01:51:49.414Z,12.50
2018-01-26T01:54:19.869Z,11.70
2018-01-26T01:56:51.803Z,11.90
2018-01-26T01:59:22.022Z,12.00
2018-01-26T02:01:52.385Z,11.33
2018-01-26T02:04:23.467Z,11.70
2018-01-26T02:06:54.186Z,11.73
2018-01-26T02:09:24.294Z,11.13
2018-01-26T02:11:54.466Z,11.50
2018-01-26T02:14:25.471Z,12.23
2018-01-26T02:16:56.048Z,12.93
2018-01-26T02:19:27.250Z,12.90
2018-01-26T02:21:58.006Z,12.77
2018-01-26T02:24:29.061Z,12.67
2018-01-26T02:26:59.431Z,11.87
2018-01-26T02:29:30.362Z,11.10
2018-01-26T02:32:01.103Z,11.43
2018-01-26T02:34:31.073Z,12.57
2018-01-26T02:37:01.564Z,12.17
2018-01-26T02:39:31.722Z,12.37
2018-01-26T02:42:03.597Z,13.10
2018-01-26T02:44:34.483Z,12.17
2018-01-26T02:47:11.350Z,12.20
2018-01-26T02:49:47.665Z,13.23
2018-01-26T02:52:22.537Z,13.30
2018-01-26T02:54:59.562Z,12.47
2018-01-26T02:57:35.002Z,13.13
2018-01-26T03:00:06.288Z,13.10
2018-01-26T03:02:36.934Z,14.47
2018-01-26T03:05:07.550Z,13.77
2018-01-26T03:07:37.808Z,14.43
2018-01-26T03:10:08.258Z,13.13
2018-01-26T03:12:38.681Z,15.37
2018-01-26T03:15:09.459Z,15.60
2018-01-26T03:17:40.400Z,15.27
2018-01-26T03:20:10.481Z,13.93
2018-01-26T03:22:41.071Z,13.33
2018-01-26T03:25:11.381Z,14.53
2018-01-26T03:27:42.656Z,14.17
2018-01-26T03:30:13.223Z,14.20
2018-01-26T03:32:44.353Z,15.43
2018-01-26T03:35:14.707Z,14.07
2018-01-26T03:37:45.036Z,14.40
2018-01-26T03:40:15.496Z,15.40
2018-01-26T03:42:45.536Z,16.17
2018-01-26T03:45:15.570Z,16.07
2018-01-26T03:47:46.200Z,16.43
2018-01-26T03:50:16.345Z,14.63
2018-01-26T03:52:47.663Z,15.10
2018-01-26T03:55:18.056Z,15.30
2018-01-26T03:57:48.477Z,15.03
2018-01-26T04:00:18.766Z,15.73
2018-01-26T04:02:49.424Z,14.40
2018-01-26T04:05:19.747Z,16.07
2018-01-26T04:07:50.195Z,16.20
2018-01-26T04:10:21.066Z,16.23
2018-01-26T04:12:52.384Z,14.97
2018-01-26T04:15:22.693Z,16.50
2018-01-26T04:17:53.572Z,17.63
2018-01-26T04:20:24.466Z,15.77
2018-01-26T04:22:54.689Z,16.87
2018-01-26T04:25:25.220Z,15.50
2018-01-26T04:27:56.221Z,17.40
2018-01-26T04:30:26.317Z,16.63
2018-01-26T04:32:58.039Z,17.10
2018-01-26T04:35:28.388Z,18.40
2018-01-26T04:37:58.561Z,16.27
2018-01-26T04:40:28.600Z,17.13
2018-01-26T04:42:59.636Z,17.33
2018-01-26T04:45:29.784Z,18.10
2018-01-26T04:48:00.752Z,18.03
2018-01-26T04:50:31.848Z,17.07
2018-01-26T04:53:01.908Z,15.30
2018-01-26T04:55:32.172Z,16.60
2018-01-26T04:58:03.383Z,18.20
2018-01-26T05:00:33.652Z,15.00
2018-01-26T05:03:04.618Z,16.20
2018-01-26T05:05:36.354Z,15.30
2018-01-26T05:08:07.503Z,16.67
2018-01-26T05:10:38.075Z,16.63
2018-01-26T05:13:08.354Z,15.07
2018-01-26T05:15:38.449Z,15.37
2018-01-26T05:18:08.624Z,15.50
2018-01-26T05:20:38.888Z,15.67
2018-01-26T05:23:09.066Z,16.47
2018-01-26T05:25:39.847Z,17.27
2018-01-26T05:28:10.392Z,17.00
2018-01-26T05:30:40.462Z,17.63
2018-01-26T05:33:10.491Z,19.37
2018-01-26T05:35:40.856Z,18.10
2018-01-26T05:38:11.200Z,17.63
2018-01-26T05:40:41.288Z,17.97
2018-01-26T05:43:12.508Z,16.57
2018-01-26T05:45:42.664Z,19.10
2018-01-26T05:48:12.823Z,17.60
2018-01-26T05:50:43.172Z,18.60
2018-01-26T05:53:13.728Z,17.50
2018-01-26T05:55:44.146Z,19.70
2018-01-26T05:58:14.268Z,19.50
2018-01-26T06:00:44.419Z,20.47
2018-01-26T06:03:14.840Z,21.53
2018-01-26T06:05:45.792Z,19.70
2018-01-26T06:08:16.697Z,19.70
2018-01-26T06:10:47.534Z,18.77
2018-01-26T06:13:17.640Z,20.97
2018-01-26T06:15:47.733Z,20.80
2018-01-26T06:18:17.999Z,18.63
2018-01-26T06:20:48.416Z,22.37
2018-01-26T06:23:18.710Z,19.10
2018-01-26T06:25:49.037Z,19.27
2018-01-26T06:28:20.168Z,18.30
2018-01-26T06:30:50.903Z,19.53
2018-01-26T06:33:21.080Z,16.87
2018-01-26T06:35:51.986Z,18.33
2018-01-26T06:38:22.245Z,15.90
2018-01-26T06:40:52.328Z,18.90
2018-01-26T06:43:22.402Z,19.67
2018-01-26T06:45:53.664Z,18.43
2018-01-26T06:48:23.838Z,18.67
2018-01-26T06:50:53.920Z,18.13
2018-01-26T06:53:24.043Z,18.70
2018-01-26T06:55:54.468Z,16.83
2018-01-26T06:58:24.721Z,18.50
2018-01-26T07:00:55.332Z,17.33
2018-01-26T07:03:25.417Z,18.50
2018-01-26T07:05:55.476Z,17.77
2018-01-26T07:08:25.719Z,18.10
2018-01-26T07:10:55.981Z,17.27
2018-01-26T07:13:26.074Z,17.77
2018-01-26T07:15:57.319Z,17.43
2018-01-26T07:18:27.464Z,17.70
2018-01-26T07:20:57.837Z,16.80
2018-01-26T07:23:29.541Z,17.93
2018-01-26T07:26:00.847Z,16.17
2018-01-26T07:28:32.131Z,17.87
2018-01-26T07:31:03.893Z,16.80
2018-01-26T07:33:38.349Z,15.97
2018-01-26T07:38:40.317Z,17.43
2018-01-26T07:41:10.505Z,17.70
2018-01-26T07:43:40.652Z,16.70
2018-01-26T07:46:11.279Z,16.50
2018-01-26T07:48:41.405Z,18.57
2018-01-26T07:51:11.606Z,16.83
2018-01-26T07:53:41.765Z,15.93
2018-01-26T07:56:12.000Z,16.73
2018-01-26T07:58:42.085Z,19.17
2018-01-26T08:01:13.675Z,16.30
2018-01-26T08:03:43.868Z,16.70
2018-01-26T08:06:14.061Z,16.30
2018-01-26T08:08:44.262Z,17.20
2018-01-26T08:11:15.333Z,16.80
2018-01-26T08:13:45.557Z,15.27
2018-01-26T08:16:16.019Z,17.03
2018-01-26T08:18:46.213Z,15.63
2018-01-26T08:21:16.528Z,15.77
2018-01-26T08:23:46.634Z,15.53
2018-01-26T08:26:17.124Z,16.87
2018-01-26T08:28:47.278Z,16.43
2018-01-26T08:31:17.401Z,15.57
2018-01-26T08:33:47.847Z,15.20
2018-01-26T08:36:17.985Z,14.20
2018-01-26T08:38:48.095Z,14.20
2018-01-26T08:41:19.183Z,13.77
2018-01-26T08:43:49.686Z,15.07
2018-01-26T08:46:19.869Z,14.40
2018-01-26T08:48:49.964Z,15.07
2018-01-26T08:51:20.134Z,14.80
2018-01-26T08:53:50.566Z,14.47
2018-01-26T08:56:20.844Z,14.77
2018-01-26T09:00:20.654Z,13.60
2018-01-26T09:02:50.972Z,14.13
2018-01-26T09:05:21.101Z,16.13
2018-01-26T09:07:51.220Z,14.87
2018-01-26T09:10:21.733Z,14.33
2018-01-26T09:12:52.704Z,14.83
2018-01-26T09:15:22.819Z,15.57
2018-01-26T09:17:53.285Z,14.20
2018-01-26T09:20:23.371Z,15.37
2018-01-26T09:22:53.456Z,13.40
2018-01-26T09:25:24.397Z,14.63
2018-01-26T09:27:54.557Z,15.20
2018-01-26T09:30:24.717Z,16.10
2018-01-26T09:32:55.618Z,15.47
2018-01-26T09:35:26.061Z,15.43
2018-01-26T09:37:56.305Z,15.67
2018-01-26T09:40:27.185Z,15.40
2018-01-26T09:42:57.592Z,16.70
2018-01-26T09:45:27.692Z,16.10
2018-01-26T09:47:58.724Z,17.57
2018-01-26T09:50:29.894Z,16.03
2018-01-26T09:53:00.465Z,15.00
2018-01-26T09:55:30.658Z,16.43
2018-01-26T09:58:00.701Z,16.33
2018-01-26T10:03:11.496Z,16.40
2018-01-26T10:05:42.380Z,16.47
2018-01-26T10:08:12.472Z,16.63
2018-01-26T10:10:42.530Z,17.00
2018-01-26T10:13:13.808Z,16.20
2018-01-26T10:15:44.073Z,16.37
2018-01-26T10:18:14.956Z,16.97
2018-01-26T10:20:45.097Z,15.57
2018-01-26T10:23:15.268Z,17.10
2018-01-26T10:25:45.377Z,15.87
2018-01-26T10:28:15.552Z,15.23
2018-01-26T10:30:45.660Z,16.30
2018-01-26T10:33:15.912Z,15.93
2018-01-26T10:35:46.293Z,14.83
2018-01-26T10:38:16.491Z,16.40
2018-01-26T10:40:46.607Z,14.97
2018-01-26T10:43:17.495Z,15.27
2018-01-26T10:45:47.620Z,15.07
2018-01-26T10:48:17.734Z,15.73
2018-01-26T10:50:48.173Z,17.07
2018-01-26T10:53:18.325Z,15.40
2018-01-26T10:55:48.453Z,16.20
2018-01-26T10:58:18.620Z,17.00
2018-01-26T11:00:49.528Z,16.57
2018-01-26T11:03:19.703Z,16.40
2018-01-26T11:05:50.996Z,17.47
2018-01-26T11:08:21.137Z,14.60
2018-01-26T11:10:51.376Z,15.60
2018-01-26T11:13:21.741Z,15.33
2018-01-26T11:15:51.942Z,17.73
2018-01-26T11:18:22.814Z,16.77
2018-01-26T11:20:53.021Z,16.37
2018-01-26T11:23:23.145Z,16.00
2018-01-26T11:25:53.989Z,15.10
2018-01-26T11:28:24.461Z,16.63
2018-01-26T11:30:54.559Z,16.70
2018-01-26T11:33:24.696Z,17.90
2018-01-26T11:35:54.989Z,16.63
2018-01-26T11:38:25.950Z,16.40
2018-01-26T11:40:56.088Z,16.87
2018-01-26T11:43:26.273Z,17.20
2018-01-26T11:45:56.818Z,15.40
2018-01-26T11:48:27.875Z,15.30
2018-01-26T11:50:58.004Z,16.40
2018-01-26T11:53:28.073Z,17.40
2018-01-26T11:55:58.490Z,17.70
2018-01-26T11:58:28.619Z,19.03
2018-01-26T12:00:58.793Z,15.93
2018-01-26T12:03:29.642Z,15.93
2018-01-26T12:06:00.852Z,18.27
2018-01-26T12:08:31.073Z,18.10
2018-01-26T12:11:01.965Z,18.27
2018-01-26T12:13:32.365Z,16.97
2018-01-26T12:16:02.524Z,16.53
2018-01-26T12:18:33.320Z,16.13
2018-01-26T12:21:04.282Z,15.60
2018-01-26T12:23:34.747Z,16.27
2018-01-26T12:26:05.067Z,16.47
2018-01-26T12:28:35.416Z,17.93
2018-01-26T12:31:06.788Z,16.73
2018-01-26T12:33:37.633Z,15.47
2018-01-26T12:36:07.757Z,14.80
2018-01-26T12:38:37.936Z,14.60
2018-01-26T12:41:08.104Z,15.27
2018-01-26T12:43:38.284Z,14.87
2018-01-26T12:46:09.180Z,15.40
2018-01-26T12:48:39.277Z,13.67
2018-01-26T12:51:09.346Z,15.10
2018-01-26T12:53:39.457Z,14.27
2018-01-26T12:56:09.564Z,13.97
2018-01-26T12:58:40.119Z,14.90
2018-01-26T13:01:11.125Z,15.00
2018-01-26T13:03:41.221Z,13.03
2018-01-26T13:06:11.315Z,14.47
2018-01-26T13:08:41.448Z,15.60
2018-01-26T13:11:11.539Z,15.20
2018-01-26T13:13:42.580Z,15.20
2018-01-26T13:16:13.767Z,16.33
2018-01-26T13:18:43.929Z,16.30
2018-01-26T13:21:14.837Z,16.23
2018-01-26T13:23:44.994Z,15.77
2018-01-26T13:26:15.952Z,17.83
2018-01-26T13:28:46.103Z,14.40
2018-01-26T13:32:45.559Z,14.60
2018-01-26T13:35:16.482Z,12.97
2018-01-26T13:37:47.159Z,13.43
2018-01-26T13:40:17.306Z,11.13
2018-01-26T13:42:47.572Z,13.60
2018-01-26T13:45:17.995Z,12.73
2018-01-26T13:47:48.552Z,11.87
2018-01-26T13:50:18.726Z,12.33
2018-01-26T13:52:48.864Z,13.53
2018-01-26T13:55:19.143Z,12.13
2018-01-26T13:57:49.349Z,12.80
2018-01-26T14:00:19.536Z,13.27
2018-01-26T14:02:49.650Z,13.77
2018-01-26T14:05:20.020Z,13.10
2018-01-26T14:07:50.220Z,14.70
2018-01-26T14:10:20.444Z,11.47
2018-01-26T14:12:50.645Z,11.67
2018-01-26T14:15:21.267Z,12.00
2018-01-26T14:17:51.359Z,12.63
2018-01-26T14:20:22.436Z,12.97
2018-01-26T14:22:53.167Z,12.90
2018-01-26T14:25:23.513Z,13.07
2018-01-26T14:27:55.353Z,12.40
2018-01-26T14:30:25.661Z,11.87
2018-01-26T14:32:56.270Z,14.13
2018-01-26T14:35:26.459Z,12.73
2018-01-26T14:37:56.633Z,14.17
2018-01-26T14:40:26.744Z,15.03
2018-01-26T14:42:57.444Z,13.03
2018-01-26T14:45:27.696Z,14.67
2018-01-26T14:47:57.876Z,14.23
2018-01-26T14:50:28.203Z,12.70
2018-01-26T14:52:58.422Z,13.37
2018-01-26T14:55:28.965Z,13.30
2018-01-26T14:57:59.085Z,13.47
2018-01-26T15:00:29.212Z,13.93
2018-01-26T15:03:00.289Z,14.03
2018-01-26T15:05:30.442Z,15.50
2018-01-26T15:08:01.345Z,12.93
2018-01-26T15:10:31.479Z,13.93
2018-01-26T15:13:02.357Z,14.20
2018-01-26T15:15:33.056Z,13.80
2018-01-26T15:18:04.273Z,12.07
2018-01-26T15:20:34.469Z,12.23
2018-01-26T15:23:05.127Z,13.77
2018-01-26T15:25:36.005Z,13.47
2018-01-26T15:28:06.227Z,14.00
2018-01-26T15:30:36.784Z,14.67
2018-01-26T15:33:06.851Z,13.60
2018-01-26T15:35:37.712Z,14.30
2018-01-26T15:38:08.192Z,13.30
2018-01-26T15:40:38.384Z,12.87
2018-01-26T15:43:08.660Z,14.43
2018-01-26T15:45:39.536Z,12.77
2018-01-26T15:48:10.021Z,12.80
2018-01-26T15:50:41.346Z,14.93
2018-01-26T15:53:11.436Z,13.37
2018-01-26T15:55:42.867Z,13.73
2018-01-26T15:58:13.934Z,13.77
2018-01-26T16:00:44.434Z,13.80
2018-01-26T16:03:14.553Z,14.73
2018-01-26T16:05:45.272Z,13.67
2018-01-26T16:08:15.600Z,14.43
2018-01-26T16:10:45.747Z,12.33
2018-01-26T16:13:15.865Z,14.53
2018-01-26T16:15:55.613Z,14.07
2018-01-26T16:18:25.898Z,13.67
2018-01-26T16:20:56.808Z,12.23
2018-01-26T16:23:28.076Z,13.00
2018-01-26T16:25:58.273Z,12.30
2018-01-26T16:28:28.567Z,12.57
2018-01-26T16:30:58.727Z,12.87
2018-01-26T16:33:29.033Z,12.10
2018-01-26T16:35:59.164Z,12.43
2018-01-26T16:38:29.641Z,14.03
2018-01-26T16:41:00.268Z,12.33
2018-01-26T16:43:30.386Z,11.70
2018-01-26T16:46:00.618Z,12.07
2018-01-26T16:48:32.520Z,13.00
2018-01-26T16:51:02.607Z,11.20
2018-01-26T16:53:33.036Z,12.60
2018-01-26T16:56:03.177Z,10.90
2018-01-26T16:58:35.154Z,13.20
2018-01-26T17:01:05.717Z,12.60
2018-01-26T17:03:35.939Z,14.00
2018-01-26T17:06:06.013Z,12.17
2018-01-26T17:08:36.374Z,12.27
2018-01-26T17:11:06.808Z,13.40
2018-01-26T17:13:36.929Z,13.83
2018-01-26T17:16:07.091Z,13.37
2018-01-26T17:18:37.284Z,11.17
2018-01-26T17:21:07.472Z,11.53
2018-01-26T17:23:38.708Z,11.73
2018-01-26T17:26:09.275Z,12.90
2018-01-26T17:28:39.413Z,12.67
2018-01-26T17:31:09.588Z,12.23
2018-01-26T17:33:40.900Z,10.50
2018-01-26T17:36:11.153Z,11.50
2018-01-26T17:38:42.058Z,12.30
2018-01-26T17:41:12.146Z,11.37
2018-01-26T17:43:42.718Z,11.43
2018-01-26T17:46:12.820Z,11.87
2018-01-26T17:48:44.069Z,12.07
2018-01-26T17:51:15.158Z,12.40
2018-01-26T17:53:46.205Z,10.80
2018-01-26T17:56:16.288Z,11.97
2018-01-26T17:58:46.387Z,10.83
2018-01-26T18:01:16.658Z,10.90
2018-01-26T18:03:47.671Z,11.83
2018-01-26T18:06:18.147Z,10.70
2018-01-26T18:08:50.414Z,9.87
2018-01-26T18:11:20.566Z,11.77
2018-01-26T18:13:51.796Z,11.00
2018-01-26T18:16:22.464Z,11.07
2018-01-26T18:18:54.229Z,11.30
2018-01-26T18:21:25.209Z,12.80
2018-01-26T18:23:56.541Z,13.00
2018-01-26T18:26:29.275Z,12.20
2018-01-26T18:29:01.738Z,13.60
2018-01-26T18:31:31.991Z,12.87
2018-01-26T18:34:03.062Z,13.77
2018-01-26T18:36:33.256Z,13.00
2018-01-26T18:39:03.660Z,14.77
2018-01-26T18:41:33.849Z,13.40
2018-01-26T18:44:05.041Z,14.47
2018-01-26T18:46:36.129Z,15.87
2018-01-26T18:49:06.318Z,16.43
2018-01-26T18:51:37.573Z,15.53
2018-01-26T18:54:07.621Z,15.47
2018-01-26T18:56:37.720Z,16.63
2018-01-26T18:59:07.992Z,14.70
2018-01-26T19:01:39.122Z,16.23
2018-01-26T19:04:09.417Z,15.20
2018-01-26T19:06:39.736Z,15.73
2018-01-26T19:09:09.845Z,16.67
2018-01-26T19:11:39.924Z,15.27
2018-01-26T19:14:10.109Z,16.17
2018-01-26T19:16:40.429Z,16.60
2018-01-26T19:19:10.936Z,15.30
2018-01-26T19:21:41.064Z,15.80
2018-01-26T19:24:11.449Z,15.83
2018-01-26T19:26:41.573Z,15.17
2018-01-26T19:29:12.248Z,14.60
2018-01-26T19:31:43.643Z,14.87
2018-01-26T19:34:13.764Z,14.70
2018-01-26T19:36:44.444Z,16.37
2018-01-26T19:39:14.586Z,14.10
2018-01-26T19:41:44.825Z,16.20
2018-01-26T19:44:17.686Z,14.87
2018-01-26T19:46:48.656Z,15.00
2018-01-26T19:49:19.173Z,14.40
2018-01-26T19:51:49.404Z,14.70
2018-01-26T19:58:57.293Z,13.87
2018-01-26T20:01:27.751Z,14.60
2018-01-26T20:04:04.192Z,13.83
2018-01-26T20:07:44.030Z,12.43
2018-01-26T20:10:15.322Z,13.57
2018-01-26T20:12:50.344Z,14.50
2018-01-26T20:15:20.841Z,13.77
2018-01-26T20:17:52.241Z,13.30
2018-01-26T20:20:22.442Z,14.60
2018-01-26T20:22:53.100Z,14.07
2018-01-26T20:25:23.305Z,13.30
2018-01-26T20:27:53.582Z,13.73
2018-01-26T20:30:23.716Z,13.50
2018-01-26T20:32:54.100Z,13.30
2018-01-26T20:35:24.260Z,15.53
2018-01-26T20:37:54.766Z,13.80
2018-01-26T20:40:25.007Z,13.33
2018-01-26T20:42:55.285Z,14.97
2018-01-26T20:45:26.610Z,14.90
2018-01-26T20:47:56.953Z,13.50
2018-01-26T20:50:29.101Z,14.27
2018-01-26T20:53:01.538Z,12.10
2018-01-26T20:55:31.909Z,12.90
2018-01-26T20:58:02.916Z,12.47
2018-01-26T21:00:33.092Z,11.50
2018-01-26T21:03:04.061Z,13.00
2018-01-26T21:05:34.180Z,12.73
2018-01-26T21:08:04.572Z,13.37
2018-01-26T21:10:35.446Z,12.50
2018-01-26T21:13:06.170Z,13.10
2018-01-26T21:15:36.810Z,13.53
2018-01-26T21:18:07.156Z,11.23
2018-01-26T21:20:37.377Z,12.00
2018-01-26T21:23:07.949Z,12.43
2018-01-26T21:25:39.500Z,12.20
2018-01-26T21:28:10.159Z,11.27
2018-01-26T21:30:40.793Z,13.97
2018-01-26T21:33:11.398Z,13.90
2018-01-26T21:35:41.935Z,14.17
2018-01-26T21:38:12.378Z,14.47
2018-01-26T21:40:43.489Z,12.73
2018-01-26T21:43:14.072Z,14.97
2018-01-26T21:45:44.816Z,14.20
2018-01-26T21:48:14.914Z,12.00
2018-01-26T21:50:45.236Z,14.30
2018-01-26T21:53:15.446Z,14.60
2018-01-26T21:55:45.880Z,13.77
2018-01-26T21:58:16.140Z,14.57
2018-01-26T22:00:46.368Z,12.20
2018-01-26T22:03:16.540Z,13.90
2018-01-26T22:05:47.315Z,12.77
2018-01-26T22:08:18.824Z,12.53
2018-01-26T22:10:48.976Z,11.93
2018-01-26T22:13:19.731Z,12.40
2018-01-26T22:15:51.722Z,12.90
2018-01-26T22:18:23.124Z,13.23
2018-01-26T22:20:54.468Z,13.60
2018-01-26T22:26:54.001Z,13.60
2018-01-26T22:29:24.553Z,13.13
2018-01-26T22:31:55.410Z,13.27
2018-01-26T22:34:26.733Z,12.70
2018-01-26T22:36:56.841Z,12.70
2018-01-26T22:39:26.920Z,14.33
2018-01-26T22:42:24.469Z,14.47
2018-01-26T22:44:54.941Z,13.80
2018-01-26T22:47:25.229Z,12.67
2018-01-26T22:49:56.005Z,13.10
2018-01-26T22:52:26.153Z,12.30
2018-01-26T22:54:57.166Z,13.70
2018-01-26T22:57:27.238Z,13.43
2018-01-26T22:59:57.360Z,11.73
2018-01-26T23:02:27.590Z,12.73
2018-01-26T23:04:58.004Z,13.80
2018-01-26T23:07:28.168Z,13.80
2018-01-26T23:09:58.994Z,13.03
2018-01-26T23:12:29.216Z,12.87
2018-01-26T23:14:59.450Z,12.80
2018-01-26T23:17:32.752Z,14.17
2018-01-26T23:20:03.632Z,13.73
2018-01-26T23:22:34.248Z,14.00
2018-01-26T23:25:04.355Z,12.77
2018-01-26T23:27:35.700Z,12.10
2018-01-26T23:30:06.654Z,13.70
2018-01-26T23:32:36.878Z,13.70
2018-01-26T23:35:07.500Z,12.07
2018-01-26T23:37:39.254Z,13.17
2018-01-26T23:58:30.968Z,12.70
